sensor_id;sensor_type;location;lat;lon;timestamp;P1;durP1;ratioP1;P2;durP2;ratioP2
15153;SDS011;7677;41.896;25.004;2024-03-02T00:01:14;32.37;;;17.43;;
15153;SDS011;7677;41.896;25.004;2024-03-02T00:03:42;35.77;;;18.77;;
15153;SDS011;7677;41.896;25.004;2024-03-02T00:06:09;38.93;;;19.30;;
15153;SDS011;7677;41.896;25.004;2024-03-02T00:08:37;37.97;;;19.73;;
15153;SDS011;7677;41.896;25.004;2024-03-02T00:11:04;38.50;;;20.23;;
15153;SDS011;7677;41.896;25.004;2024-03-02T00:13:33;39.90;;;19.90;;
15153;SDS011;7677;41.896;25.004;2024-03-02T00:16:01;36.23;;;18.40;;
15153;SDS011;7677;41.896;25.004;2024-03-02T00:18:30;37.87;;;19.47;;
15153;SDS011;7677;41.896;25.004;2024-03-02T00:20:58;44.77;;;23.30;;
15153;SDS011;7677;41.896;25.004;2024-03-02T00:23:27;38.97;;;20.20;;
15153;SDS011;7677;41.896;25.004;2024-03-02T00:25:56;32.23;;;16.70;;
15153;SDS011;7677;41.896;25.004;2024-03-02T00:28:24;33.00;;;15.43;;
15153;SDS011;7677;41.896;25.004;2024-03-02T00:31:03;29.23;;;15.47;;
15153;SDS011;7677;41.896;25.004;2024-03-02T00:33:32;31.00;;;16.60;;
15153;SDS011;7677;41.896;25.004;2024-03-02T00:36:00;28.27;;;15.33;;
15153;SDS011;7677;41.896;25.004;2024-03-02T00:38:28;32.87;;;16.73;;
15153;SDS011;7677;41.896;25.004;2024-03-02T00:40:56;29.53;;;15.43;;
15153;SDS011;7677;41.896;25.004;2024-03-02T00:43:38;30.97;;;16.43;;
15153;SDS011;7677;41.896;25.004;2024-03-02T00:46:10;23.93;;;15.23;;
15153;SDS011;7677;41.896;25.004;2024-03-02T00:48:38;28.33;;;14.47;;
15153;SDS011;7677;41.896;25.004;2024-03-02T00:51:06;24.63;;;15.00;;
15153;SDS011;7677;41.896;25.004;2024-03-02T00:53:34;28.33;;;14.83;;
15153;SDS011;7677;41.896;25.004;2024-03-02T00:56:02;26.87;;;15.37;;
15153;SDS011;7677;41.896;25.004;2024-03-02T00:58:29;45.83;;;21.77;;
15153;SDS011;7677;41.896;25.004;2024-03-02T01:00:57;71.73;;;28.50;;
15153;SDS011;7677;41.896;25.004;2024-03-02T01:03:25;91.47;;;29.63;;
15153;SDS011;7677;41.896;25.004;2024-03-02T01:05:53;128.80;;;29.90;;
15153;SDS011;7677;41.896;25.004;2024-03-02T01:08:20;73.13;;;28.40;;
15153;SDS011;7677;41.896;25.004;2024-03-02T01:10:47;74.47;;;30.47;;
15153;SDS011;7677;41.896;25.004;2024-03-02T01:13:14;152.07;;;29.37;;
15153;SDS011;7677;41.896;25.004;2024-03-02T01:15:42;122.07;;;32.97;;
15153;SDS011;7677;41.896;25.004;2024-03-02T01:18:09;209.30;;;35.07;;
15153;SDS011;7677;41.896;25.004;2024-03-02T01:20:38;73.73;;;28.10;;
15153;SDS011;7677;41.896;25.004;2024-03-02T01:23:05;235.63;;;32.97;;
15153;SDS011;7677;41.896;25.004;2024-03-02T01:25:32;66.60;;;27.70;;
15153;SDS011;7677;41.896;25.004;2024-03-02T01:28:01;147.37;;;26.60;;
15153;SDS011;7677;41.896;25.004;2024-03-02T01:30:28;83.43;;;26.90;;
15153;SDS011;7677;41.896;25.004;2024-03-02T01:32:55;73.17;;;26.10;;
15153;SDS011;7677;41.896;25.004;2024-03-02T01:35:24;59.90;;;23.80;;
15153;SDS011;7677;41.896;25.004;2024-03-02T01:37:53;77.23;;;26.53;;
15153;SDS011;7677;41.896;25.004;2024-03-02T01:40:20;59.37;;;22.07;;
15153;SDS011;7677;41.896;25.004;2024-03-02T01:42:51;129.53;;;24.90;;
15153;SDS011;7677;41.896;25.004;2024-03-02T01:45:19;76.23;;;23.27;;
15153;SDS011;7677;41.896;25.004;2024-03-02T01:47:46;55.10;;;22.00;;
15153;SDS011;7677;41.896;25.004;2024-03-02T01:50:13;52.43;;;22.40;;
15153;SDS011;7677;41.896;25.004;2024-03-02T01:52:41;84.63;;;21.37;;
15153;SDS011;7677;41.896;25.004;2024-03-02T01:55:10;105.10;;;24.13;;
15153;SDS011;7677;41.896;25.004;2024-03-02T01:57:38;155.67;;;24.67;;
15153;SDS011;7677;41.896;25.004;2024-03-02T02:00:07;87.43;;;23.77;;
15153;SDS011;7677;41.896;25.004;2024-03-02T02:02:35;83.23;;;23.67;;
15153;SDS011;7677;41.896;25.004;2024-03-02T02:05:02;212.67;;;29.63;;
15153;SDS011;7677;41.896;25.004;2024-03-02T02:07:30;245.93;;;31.97;;
15153;SDS011;7677;41.896;25.004;2024-03-02T02:09:58;150.43;;;25.73;;
15153;SDS011;7677;41.896;25.004;2024-03-02T02:12:27;275.00;;;37.83;;
15153;SDS011;7677;41.896;25.004;2024-03-02T02:14:55;147.90;;;26.60;;
15153;SDS011;7677;41.896;25.004;2024-03-02T02:17:22;78.63;;;23.80;;
15153;SDS011;7677;41.896;25.004;2024-03-02T02:19:50;318.20;;;34.03;;
15153;SDS011;7677;41.896;25.004;2024-03-02T02:22:19;73.30;;;21.20;;
15153;SDS011;7677;41.896;25.004;2024-03-02T02:24:46;141.80;;;27.97;;
15153;SDS011;7677;41.896;25.004;2024-03-02T02:27:13;56.03;;;21.43;;
15153;SDS011;7677;41.896;25.004;2024-03-02T02:29:41;330.97;;;37.83;;
15153;SDS011;7677;41.896;25.004;2024-03-02T02:32:08;84.13;;;22.13;;
15153;SDS011;7677;41.896;25.004;2024-03-02T02:34:35;69.80;;;21.50;;
15153;SDS011;7677;41.896;25.004;2024-03-02T02:37:02;54.63;;;20.53;;
15153;SDS011;7677;41.896;25.004;2024-03-02T02:39:31;90.67;;;22.67;;
15153;SDS011;7677;41.896;25.004;2024-03-02T02:41:58;85.80;;;26.37;;
15153;SDS011;7677;41.896;25.004;2024-03-02T02:44:26;84.37;;;29.77;;
15153;SDS011;7677;41.896;25.004;2024-03-02T02:46:53;60.93;;;26.07;;
15153;SDS011;7677;41.896;25.004;2024-03-02T02:49:20;60.77;;;24.57;;
15153;SDS011;7677;41.896;25.004;2024-03-02T02:51:48;74.50;;;22.87;;
15153;SDS011;7677;41.896;25.004;2024-03-02T02:54:15;52.87;;;21.23;;
15153;SDS011;7677;41.896;25.004;2024-03-02T02:56:43;54.13;;;19.53;;
15153;SDS011;7677;41.896;25.004;2024-03-02T02:59:11;57.17;;;19.60;;
15153;SDS011;7677;41.896;25.004;2024-03-02T03:01:38;48.77;;;17.37;;
15153;SDS011;7677;41.896;25.004;2024-03-02T03:04:05;97.53;;;21.73;;
15153;SDS011;7677;41.896;25.004;2024-03-02T03:06:32;49.83;;;19.40;;
15153;SDS011;7677;41.896;25.004;2024-03-02T03:08:59;48.70;;;19.37;;
15153;SDS011;7677;41.896;25.004;2024-03-02T03:11:27;48.47;;;18.90;;
15153;SDS011;7677;41.896;25.004;2024-03-02T03:13:56;53.73;;;21.63;;
15153;SDS011;7677;41.896;25.004;2024-03-02T03:16:25;87.53;;;20.50;;
15153;SDS011;7677;41.896;25.004;2024-03-02T03:18:52;55.20;;;19.37;;
15153;SDS011;7677;41.896;25.004;2024-03-02T03:21:20;55.70;;;22.40;;
15153;SDS011;7677;41.896;25.004;2024-03-02T03:23:47;49.77;;;20.27;;
15153;SDS011;7677;41.896;25.004;2024-03-02T03:26:14;151.07;;;24.73;;
15153;SDS011;7677;41.896;25.004;2024-03-02T03:28:41;108.00;;;21.03;;
15153;SDS011;7677;41.896;25.004;2024-03-02T03:31:10;54.57;;;20.60;;
15153;SDS011;7677;41.896;25.004;2024-03-02T03:33:37;77.83;;;19.40;;
15153;SDS011;7677;41.896;25.004;2024-03-02T03:36:04;52.53;;;19.37;;
15153;SDS011;7677;41.896;25.004;2024-03-02T03:38:32;44.50;;;19.60;;
15153;SDS011;7677;41.896;25.004;2024-03-02T03:40:59;46.37;;;17.20;;
15153;SDS011;7677;41.896;25.004;2024-03-02T03:43:26;42.70;;;18.83;;
15153;SDS011;7677;41.896;25.004;2024-03-02T03:45:54;41.53;;;18.20;;
15153;SDS011;7677;41.896;25.004;2024-03-02T03:48:23;62.90;;;20.17;;
15153;SDS011;7677;41.896;25.004;2024-03-02T03:50:55;58.43;;;19.10;;
15153;SDS011;7677;41.896;25.004;2024-03-02T03:53:23;51.37;;;18.43;;
15153;SDS011;7677;41.896;25.004;2024-03-02T03:55:50;61.87;;;19.67;;
15153;SDS011;7677;41.896;25.004;2024-03-02T03:58:17;51.67;;;17.60;;
15153;SDS011;7677;41.896;25.004;2024-03-02T04:00:46;48.00;;;18.47;;
15153;SDS011;7677;41.896;25.004;2024-03-02T04:03:13;81.80;;;17.60;;
15153;SDS011;7677;41.896;25.004;2024-03-02T04:05:41;48.77;;;18.30;;
15153;SDS011;7677;41.896;25.004;2024-03-02T04:08:09;53.20;;;17.40;;
15153;SDS011;7677;41.896;25.004;2024-03-02T04:10:36;40.60;;;16.30;;
15153;SDS011;7677;41.896;25.004;2024-03-02T04:13:05;45.50;;;16.93;;
15153;SDS011;7677;41.896;25.004;2024-03-02T04:15:32;41.30;;;17.57;;
15153;SDS011;7677;41.896;25.004;2024-03-02T04:18:00;40.93;;;17.30;;
15153;SDS011;7677;41.896;25.004;2024-03-02T04:20:27;121.67;;;21.43;;
15153;SDS011;7677;41.896;25.004;2024-03-02T04:22:56;77.13;;;18.83;;
15153;SDS011;7677;41.896;25.004;2024-03-02T04:25:23;44.27;;;16.87;;
15153;SDS011;7677;41.896;25.004;2024-03-02T04:27:50;54.83;;;18.50;;
15153;SDS011;7677;41.896;25.004;2024-03-02T04:30:18;38.00;;;17.53;;
15153;SDS011;7677;41.896;25.004;2024-03-02T04:32:45;38.30;;;16.03;;
15153;SDS011;7677;41.896;25.004;2024-03-02T04:35:13;35.33;;;15.03;;
15153;SDS011;7677;41.896;25.004;2024-03-02T04:37:40;64.60;;;17.30;;
15153;SDS011;7677;41.896;25.004;2024-03-02T04:40:09;46.93;;;15.57;;
15153;SDS011;7677;41.896;25.004;2024-03-02T04:42:37;37.90;;;16.13;;
15153;SDS011;7677;41.896;25.004;2024-03-02T04:45:05;39.80;;;17.03;;
15153;SDS011;7677;41.896;25.004;2024-03-02T04:47:33;38.07;;;16.07;;
15153;SDS011;7677;41.896;25.004;2024-03-02T04:50:00;39.73;;;15.27;;
15153;SDS011;7677;41.896;25.004;2024-03-02T04:52:27;32.40;;;15.50;;
15153;SDS011;7677;41.896;25.004;2024-03-02T04:54:54;37.53;;;16.63;;
15153;SDS011;7677;41.896;25.004;2024-03-02T04:57:51;45.67;;;18.77;;
15153;SDS011;7677;41.896;25.004;2024-03-02T05:00:20;50.93;;;19.60;;
15153;SDS011;7677;41.896;25.004;2024-03-02T05:02:47;60.53;;;24.87;;
15153;SDS011;7677;41.896;25.004;2024-03-02T05:05:14;70.77;;;30.33;;
15153;SDS011;7677;41.896;25.004;2024-03-02T05:07:42;66.67;;;30.50;;
15153;SDS011;7677;41.896;25.004;2024-03-02T05:10:09;59.70;;;25.80;;
15153;SDS011;7677;41.896;25.004;2024-03-02T05:12:37;36.43;;;18.50;;
15153;SDS011;7677;41.896;25.004;2024-03-02T05:15:23;35.43;;;16.93;;
15153;SDS011;7677;41.896;25.004;2024-03-02T05:17:50;39.47;;;17.67;;
15153;SDS011;7677;41.896;25.004;2024-03-02T05:20:18;34.53;;;16.80;;
15153;SDS011;7677;41.896;25.004;2024-03-02T05:22:45;31.93;;;15.17;;
15153;SDS011;7677;41.896;25.004;2024-03-02T05:25:13;30.13;;;14.90;;
15153;SDS011;7677;41.896;25.004;2024-03-02T05:27:41;42.97;;;20.57;;
15153;SDS011;7677;41.896;25.004;2024-03-02T05:30:08;59.67;;;31.57;;
15153;SDS011;7677;41.896;25.004;2024-03-02T05:32:38;48.73;;;25.37;;
15153;SDS011;7677;41.896;25.004;2024-03-02T05:35:05;55.57;;;24.30;;
15153;SDS011;7677;41.896;25.004;2024-03-02T05:37:33;43.27;;;19.80;;
15153;SDS011;7677;41.896;25.004;2024-03-02T05:40:00;33.30;;;15.83;;
15153;SDS011;7677;41.896;25.004;2024-03-02T05:42:28;35.97;;;15.87;;
15153;SDS011;7677;41.896;25.004;2024-03-02T05:44:55;31.70;;;14.93;;
15153;SDS011;7677;41.896;25.004;2024-03-02T05:47:22;27.93;;;13.27;;
15153;SDS011;7677;41.896;25.004;2024-03-02T05:49:51;24.67;;;12.97;;
15153;SDS011;7677;41.896;25.004;2024-03-02T05:52:18;28.17;;;12.73;;
15153;SDS011;7677;41.896;25.004;2024-03-02T05:54:46;21.90;;;11.30;;
15153;SDS011;7677;41.896;25.004;2024-03-02T05:57:14;25.00;;;11.57;;
15153;SDS011;7677;41.896;25.004;2024-03-02T05:59:57;20.40;;;11.57;;
15153;SDS011;7677;41.896;25.004;2024-03-02T06:02:25;20.67;;;10.07;;
15153;SDS011;7677;41.896;25.004;2024-03-02T06:04:55;20.43;;;10.13;;
15153;SDS011;7677;41.896;25.004;2024-03-02T06:07:23;18.83;;;10.67;;
15153;SDS011;7677;41.896;25.004;2024-03-02T06:09:50;19.17;;;10.93;;
15153;SDS011;7677;41.896;25.004;2024-03-02T06:12:17;24.03;;;12.93;;
15153;SDS011;7677;41.896;25.004;2024-03-02T06:14:45;28.67;;;15.30;;
15153;SDS011;7677;41.896;25.004;2024-03-02T06:17:12;28.93;;;15.63;;
15153;SDS011;7677;41.896;25.004;2024-03-02T06:19:39;31.87;;;14.87;;
15153;SDS011;7677;41.896;25.004;2024-03-02T06:22:08;32.70;;;18.57;;
15153;SDS011;7677;41.896;25.004;2024-03-02T06:24:36;30.63;;;17.03;;
15153;SDS011;7677;41.896;25.004;2024-03-02T06:27:03;40.70;;;19.73;;
15153;SDS011;7677;41.896;25.004;2024-03-02T06:29:32;35.63;;;21.87;;
15153;SDS011;7677;41.896;25.004;2024-03-02T06:31:59;40.27;;;24.10;;
15153;SDS011;7677;41.896;25.004;2024-03-02T06:34:26;42.80;;;21.60;;
15153;SDS011;7677;41.896;25.004;2024-03-02T06:36:54;36.17;;;22.10;;
15153;SDS011;7677;41.896;25.004;2024-03-02T06:39:22;36.93;;;23.90;;
15153;SDS011;7677;41.896;25.004;2024-03-02T06:41:51;32.23;;;19.57;;
15153;SDS011;7677;41.896;25.004;2024-03-02T06:44:18;23.43;;;15.80;;
15153;SDS011;7677;41.896;25.004;2024-03-02T06:46:46;24.80;;;14.87;;
15153;SDS011;7677;41.896;25.004;2024-03-02T06:49:13;24.23;;;13.40;;
15153;SDS011;7677;41.896;25.004;2024-03-02T06:51:43;21.93;;;15.10;;
15153;SDS011;7677;41.896;25.004;2024-03-02T06:54:10;31.53;;;19.17;;
15153;SDS011;7677;41.896;25.004;2024-03-02T06:56:39;28.00;;;16.53;;
15153;SDS011;7677;41.896;25.004;2024-03-02T06:59:06;30.63;;;18.10;;
15153;SDS011;7677;41.896;25.004;2024-03-02T07:01:33;24.67;;;14.57;;
15153;SDS011;7677;41.896;25.004;2024-03-02T07:04:01;22.47;;;12.90;;
15153;SDS011;7677;41.896;25.004;2024-03-02T07:06:28;20.60;;;12.23;;
15153;SDS011;7677;41.896;25.004;2024-03-02T07:08:55;22.23;;;12.77;;
15153;SDS011;7677;41.896;25.004;2024-03-02T07:11:23;38.30;;;20.97;;
15153;SDS011;7677;41.896;25.004;2024-03-02T07:13:51;28.67;;;16.87;;
15153;SDS011;7677;41.896;25.004;2024-03-02T07:16:19;24.23;;;15.33;;
15153;SDS011;7677;41.896;25.004;2024-03-02T07:18:53;29.63;;;15.77;;
15153;SDS011;7677;41.896;25.004;2024-03-02T07:21:21;19.87;;;11.60;;
15153;SDS011;7677;41.896;25.004;2024-03-02T07:23:49;23.80;;;12.30;;
15153;SDS011;7677;41.896;25.004;2024-03-02T07:26:16;33.73;;;17.17;;
15153;SDS011;7677;41.896;25.004;2024-03-02T07:28:45;28.53;;;17.80;;
15153;SDS011;7677;41.896;25.004;2024-03-02T07:31:14;24.00;;;14.73;;
15153;SDS011;7677;41.896;25.004;2024-03-02T07:33:43;19.27;;;12.10;;
15153;SDS011;7677;41.896;25.004;2024-03-02T07:36:11;14.50;;;9.67;;
15153;SDS011;7677;41.896;25.004;2024-03-02T07:38:39;13.30;;;9.33;;
15153;SDS011;7677;41.896;25.004;2024-03-02T07:41:06;14.80;;;10.00;;
15153;SDS011;7677;41.896;25.004;2024-03-02T07:43:34;16.23;;;9.97;;
15153;SDS011;7677;41.896;25.004;2024-03-02T07:46:01;17.37;;;12.20;;
15153;SDS011;7677;41.896;25.004;2024-03-02T07:48:31;15.83;;;10.13;;
15153;SDS011;7677;41.896;25.004;2024-03-02T07:50:58;17.60;;;11.43;;
15153;SDS011;7677;41.896;25.004;2024-03-02T07:53:25;21.13;;;12.73;;
15153;SDS011;7677;41.896;25.004;2024-03-02T07:55:52;18.80;;;10.97;;
15153;SDS011;7677;41.896;25.004;2024-03-02T07:58:22;19.90;;;12.33;;
15153;SDS011;7677;41.896;25.004;2024-03-02T08:00:49;22.97;;;13.63;;
15153;SDS011;7677;41.896;25.004;2024-03-02T08:03:16;22.47;;;13.97;;
15153;SDS011;7677;41.896;25.004;2024-03-02T08:05:45;21.77;;;13.37;;
15153;SDS011;7677;41.896;25.004;2024-03-02T08:08:12;21.20;;;13.43;;
15153;SDS011;7677;41.896;25.004;2024-03-02T08:10:40;21.80;;;14.03;;
15153;SDS011;7677;41.896;25.004;2024-03-02T08:13:07;20.33;;;11.97;;
15153;SDS011;7677;41.896;25.004;2024-03-02T08:15:34;23.33;;;12.80;;
15153;SDS011;7677;41.896;25.004;2024-03-02T08:18:01;23.03;;;14.20;;
15153;SDS011;7677;41.896;25.004;2024-03-02T08:20:28;22.57;;;14.40;;
15153;SDS011;7677;41.896;25.004;2024-03-02T08:22:58;23.00;;;14.30;;
15153;SDS011;7677;41.896;25.004;2024-03-02T08:25:25;23.40;;;14.67;;
15153;SDS011;7677;41.896;25.004;2024-03-02T08:27:52;25.50;;;14.40;;
15153;SDS011;7677;41.896;25.004;2024-03-02T08:30:20;27.47;;;15.80;;
15153;SDS011;7677;41.896;25.004;2024-03-02T08:32:47;23.97;;;15.43;;
15153;SDS011;7677;41.896;25.004;2024-03-02T08:35:14;20.93;;;13.03;;
15153;SDS011;7677;41.896;25.004;2024-03-02T08:37:42;18.87;;;11.97;;
15153;SDS011;7677;41.896;25.004;2024-03-02T08:40:11;18.77;;;11.80;;
15153;SDS011;7677;41.896;25.004;2024-03-02T08:42:39;19.73;;;13.10;;
15153;SDS011;7677;41.896;25.004;2024-03-02T08:45:06;29.43;;;17.93;;
15153;SDS011;7677;41.896;25.004;2024-03-02T08:47:34;25.07;;;16.50;;
15153;SDS011;7677;41.896;25.004;2024-03-02T08:50:01;26.67;;;14.90;;
15153;SDS011;7677;41.896;25.004;2024-03-02T08:52:30;24.50;;;16.10;;
15153;SDS011;7677;41.896;25.004;2024-03-02T08:54:58;23.50;;;14.93;;
15153;SDS011;7677;41.896;25.004;2024-03-02T08:57:27;22.53;;;14.60;;
15153;SDS011;7677;41.896;25.004;2024-03-02T08:59:54;24.10;;;14.83;;
15153;SDS011;7677;41.896;25.004;2024-03-02T09:02:22;24.40;;;15.00;;
15153;SDS011;7677;41.896;25.004;2024-03-02T09:04:49;23.00;;;14.87;;
15153;SDS011;7677;41.896;25.004;2024-03-02T09:07:16;22.57;;;13.97;;
15153;SDS011;7677;41.896;25.004;2024-03-02T09:09:44;23.17;;;14.80;;
15153;SDS011;7677;41.896;25.004;2024-03-02T09:12:11;24.13;;;14.50;;
15153;SDS011;7677;41.896;25.004;2024-03-02T09:14:40;23.03;;;14.97;;
15153;SDS011;7677;41.896;25.004;2024-03-02T09:17:07;24.77;;;14.53;;
15153;SDS011;7677;41.896;25.004;2024-03-02T09:19:36;24.97;;;15.10;;
15153;SDS011;7677;41.896;25.004;2024-03-02T09:22:03;25.10;;;15.43;;
15153;SDS011;7677;41.896;25.004;2024-03-02T09:24:31;33.00;;;21.27;;
15153;SDS011;7677;41.896;25.004;2024-03-02T09:26:59;34.70;;;23.30;;
15153;SDS011;7677;41.896;25.004;2024-03-02T09:29:26;26.03;;;17.50;;
15153;SDS011;7677;41.896;25.004;2024-03-02T09:31:56;30.53;;;20.80;;
15153;SDS011;7677;41.896;25.004;2024-03-02T09:34:23;24.07;;;16.20;;
15153;SDS011;7677;41.896;25.004;2024-03-02T09:36:50;22.83;;;16.00;;
15153;SDS011;7677;41.896;25.004;2024-03-02T09:39:18;25.83;;;17.27;;
15153;SDS011;7677;41.896;25.004;2024-03-02T09:41:45;23.67;;;16.23;;
15153;SDS011;7677;41.896;25.004;2024-03-02T09:44:13;30.20;;;21.33;;
15153;SDS011;7677;41.896;25.004;2024-03-02T09:46:41;29.30;;;19.23;;
15153;SDS011;7677;41.896;25.004;2024-03-02T09:49:10;38.27;;;22.80;;
15153;SDS011;7677;41.896;25.004;2024-03-02T09:51:38;41.73;;;23.33;;
15153;SDS011;7677;41.896;25.004;2024-03-02T09:54:05;32.33;;;20.93;;
15153;SDS011;7677;41.896;25.004;2024-03-02T09:56:34;31.83;;;19.27;;
15153;SDS011;7677;41.896;25.004;2024-03-02T09:59:01;29.97;;;18.27;;
15153;SDS011;7677;41.896;25.004;2024-03-02T10:01:30;29.40;;;17.37;;
15153;SDS011;7677;41.896;25.004;2024-03-02T10:03:57;25.73;;;15.67;;
15153;SDS011;7677;41.896;25.004;2024-03-02T10:06:28;24.53;;;16.13;;
15153;SDS011;7677;41.896;25.004;2024-03-02T10:08:55;30.80;;;17.73;;
15153;SDS011;7677;41.896;25.004;2024-03-02T10:11:27;33.20;;;20.03;;
15153;SDS011;7677;41.896;25.004;2024-03-02T10:14:05;31.43;;;18.43;;
15153;SDS011;7677;41.896;25.004;2024-03-02T10:16:36;29.47;;;18.67;;
15153;SDS011;7677;41.896;25.004;2024-03-02T10:19:17;32.43;;;19.13;;
15153;SDS011;7677;41.896;25.004;2024-03-02T10:21:46;30.63;;;16.90;;
15153;SDS011;7677;41.896;25.004;2024-03-02T10:24:14;26.67;;;16.80;;
15153;SDS011;7677;41.896;25.004;2024-03-02T10:26:42;23.93;;;16.60;;
15153;SDS011;7677;41.896;25.004;2024-03-02T10:29:09;26.97;;;16.97;;
15153;SDS011;7677;41.896;25.004;2024-03-02T10:31:37;25.17;;;16.40;;
15153;SDS011;7677;41.896;25.004;2024-03-02T10:34:04;25.53;;;16.10;;
15153;SDS011;7677;41.896;25.004;2024-03-02T10:36:32;25.83;;;16.73;;
15153;SDS011;7677;41.896;25.004;2024-03-02T10:39:03;29.00;;;17.83;;
15153;SDS011;7677;41.896;25.004;2024-03-02T10:41:32;28.40;;;17.37;;
15153;SDS011;7677;41.896;25.004;2024-03-02T10:44:01;29.23;;;17.43;;
15153;SDS011;7677;41.896;25.004;2024-03-02T10:46:29;30.23;;;17.13;;
15153;SDS011;7677;41.896;25.004;2024-03-02T10:48:57;27.63;;;16.87;;
15153;SDS011;7677;41.896;25.004;2024-03-02T10:51:25;31.50;;;17.73;;
15153;SDS011;7677;41.896;25.004;2024-03-02T10:53:54;24.10;;;15.13;;
15153;SDS011;7677;41.896;25.004;2024-03-02T10:56:27;21.10;;;13.13;;
15153;SDS011;7677;41.896;25.004;2024-03-02T10:58:56;28.47;;;16.23;;
15153;SDS011;7677;41.896;25.004;2024-03-02T11:01:29;26.13;;;16.77;;
15153;SDS011;7677;41.896;25.004;2024-03-02T11:03:58;29.53;;;17.53;;
15153;SDS011;7677;41.896;25.004;2024-03-02T11:06:27;29.00;;;17.93;;
15153;SDS011;7677;41.896;25.004;2024-03-02T11:08:58;25.93;;;16.03;;
15153;SDS011;7677;41.896;25.004;2024-03-02T11:11:32;28.40;;;16.93;;
15153;SDS011;7677;41.896;25.004;2024-03-02T11:14:01;29.73;;;19.83;;
15153;SDS011;7677;41.896;25.004;2024-03-02T11:16:33;28.20;;;17.77;;
15153;SDS011;7677;41.896;25.004;2024-03-02T11:19:03;29.27;;;18.87;;
15153;SDS011;7677;41.896;25.004;2024-03-02T11:21:31;27.37;;;17.30;;
15153;SDS011;7677;41.896;25.004;2024-03-02T11:23:59;22.47;;;15.07;;
15153;SDS011;7677;41.896;25.004;2024-03-02T11:26:27;23.87;;;14.50;;
15153;SDS011;7677;41.896;25.004;2024-03-02T11:28:56;22.27;;;13.57;;
15153;SDS011;7677;41.896;25.004;2024-03-02T11:34:30;28.93;;;16.43;;
15153;SDS011;7677;41.896;25.004;2024-03-02T11:36:58;33.80;;;18.43;;
15153;SDS011;7677;41.896;25.004;2024-03-02T11:39:25;31.37;;;16.70;;
15153;SDS011;7677;41.896;25.004;2024-03-02T11:41:53;25.57;;;15.77;;
15153;SDS011;7677;41.896;25.004;2024-03-02T11:44:21;27.80;;;16.57;;
15153;SDS011;7677;41.896;25.004;2024-03-02T11:46:51;37.37;;;21.73;;
15153;SDS011;7677;41.896;25.004;2024-03-02T11:49:20;27.90;;;16.93;;
15153;SDS011;7677;41.896;25.004;2024-03-02T11:52:04;29.27;;;17.83;;
15153;SDS011;7677;41.896;25.004;2024-03-02T11:54:32;33.50;;;20.17;;
15153;SDS011;7677;41.896;25.004;2024-03-02T11:57:01;22.13;;;14.33;;
15153;SDS011;7677;41.896;25.004;2024-03-02T11:59:30;24.00;;;14.20;;
15153;SDS011;7677;41.896;25.004;2024-03-02T12:01:57;21.63;;;13.30;;
15153;SDS011;7677;41.896;25.004;2024-03-02T12:04:26;21.70;;;13.00;;
15153;SDS011;7677;41.896;25.004;2024-03-02T12:06:56;21.83;;;13.90;;
15153;SDS011;7677;41.896;25.004;2024-03-02T12:09:26;20.87;;;12.83;;
15153;SDS011;7677;41.896;25.004;2024-03-02T12:12:06;22.63;;;14.77;;
15153;SDS011;7677;41.896;25.004;2024-03-02T12:14:36;23.23;;;13.93;;
15153;SDS011;7677;41.896;25.004;2024-03-02T12:17:04;26.13;;;13.97;;
15153;SDS011;7677;41.896;25.004;2024-03-02T12:19:32;21.20;;;12.73;;
15153;SDS011;7677;41.896;25.004;2024-03-02T12:22:00;16.00;;;10.60;;
15153;SDS011;7677;41.896;25.004;2024-03-02T12:24:28;25.27;;;13.43;;
15153;SDS011;7677;41.896;25.004;2024-03-02T12:26:56;26.90;;;14.70;;
15153;SDS011;7677;41.896;25.004;2024-03-02T12:29:23;22.67;;;12.90;;
15153;SDS011;7677;41.896;25.004;2024-03-02T12:31:52;26.90;;;16.07;;
15153;SDS011;7677;41.896;25.004;2024-03-02T12:34:20;22.13;;;13.83;;
15153;SDS011;7677;41.896;25.004;2024-03-02T12:36:48;20.87;;;12.77;;
15153;SDS011;7677;41.896;25.004;2024-03-02T12:39:18;22.87;;;11.77;;
15153;SDS011;7677;41.896;25.004;2024-03-02T12:41:48;25.40;;;14.43;;
15153;SDS011;7677;41.896;25.004;2024-03-02T12:44:16;21.63;;;14.20;;
15153;SDS011;7677;41.896;25.004;2024-03-02T12:46:43;24.07;;;13.93;;
15153;SDS011;7677;41.896;25.004;2024-03-02T12:49:12;21.53;;;13.97;;
15153;SDS011;7677;41.896;25.004;2024-03-02T12:51:41;29.60;;;17.37;;
15153;SDS011;7677;41.896;25.004;2024-03-02T12:54:09;24.10;;;14.77;;
15153;SDS011;7677;41.896;25.004;2024-03-02T12:56:37;22.00;;;14.83;;
15153;SDS011;7677;41.896;25.004;2024-03-02T12:59:04;23.77;;;15.80;;
15153;SDS011;7677;41.896;25.004;2024-03-02T13:01:32;28.40;;;17.43;;
15153;SDS011;7677;41.896;25.004;2024-03-02T13:03:59;31.07;;;17.37;;
15153;SDS011;7677;41.896;25.004;2024-03-02T13:06:28;26.27;;;16.63;;
15153;SDS011;7677;41.896;25.004;2024-03-02T13:08:55;27.03;;;16.17;;
15153;SDS011;7677;41.896;25.004;2024-03-02T13:11:23;30.07;;;16.40;;
15153;SDS011;7677;41.896;25.004;2024-03-02T13:13:51;25.80;;;16.70;;
15153;SDS011;7677;41.896;25.004;2024-03-02T13:16:18;24.20;;;15.53;;
15153;SDS011;7677;41.896;25.004;2024-03-02T13:18:46;29.73;;;17.67;;
15153;SDS011;7677;41.896;25.004;2024-03-02T13:21:13;26.87;;;16.97;;
15153;SDS011;7677;41.896;25.004;2024-03-02T13:23:42;28.27;;;17.87;;
15153;SDS011;7677;41.896;25.004;2024-03-02T13:26:09;30.97;;;18.77;;
15153;SDS011;7677;41.896;25.004;2024-03-02T13:28:38;29.40;;;17.13;;
15153;SDS011;7677;41.896;25.004;2024-03-02T13:31:05;25.43;;;16.33;;
15153;SDS011;7677;41.896;25.004;2024-03-02T13:33:33;22.60;;;15.27;;
15153;SDS011;7677;41.896;25.004;2024-03-02T13:36:00;21.53;;;14.90;;
15153;SDS011;7677;41.896;25.004;2024-03-02T13:38:28;24.93;;;15.27;;
15153;SDS011;7677;41.896;25.004;2024-03-02T13:40:57;25.00;;;15.27;;
15153;SDS011;7677;41.896;25.004;2024-03-02T13:43:26;25.23;;;16.43;;
15153;SDS011;7677;41.896;25.004;2024-03-02T13:45:53;30.13;;;17.43;;
15153;SDS011;7677;41.896;25.004;2024-03-02T13:48:20;25.87;;;15.10;;
15153;SDS011;7677;41.896;25.004;2024-03-02T13:50:47;23.80;;;13.47;;
15153;SDS011;7677;41.896;25.004;2024-03-02T13:53:15;21.20;;;13.20;;
15153;SDS011;7677;41.896;25.004;2024-03-02T13:55:42;20.53;;;12.67;;
15153;SDS011;7677;41.896;25.004;2024-03-02T13:58:11;24.87;;;14.90;;
15153;SDS011;7677;41.896;25.004;2024-03-02T14:00:38;25.07;;;14.80;;
15153;SDS011;7677;41.896;25.004;2024-03-02T14:03:05;21.23;;;13.67;;
15153;SDS011;7677;41.896;25.004;2024-03-02T14:05:33;20.37;;;13.40;;
15153;SDS011;7677;41.896;25.004;2024-03-02T14:08:00;19.67;;;13.67;;
15153;SDS011;7677;41.896;25.004;2024-03-02T14:10:27;24.20;;;14.53;;
15153;SDS011;7677;41.896;25.004;2024-03-02T14:12:55;25.17;;;14.87;;
15153;SDS011;7677;41.896;25.004;2024-03-02T14:15:23;31.10;;;17.43;;
15153;SDS011;7677;41.896;25.004;2024-03-02T14:17:51;25.43;;;16.60;;
15153;SDS011;7677;41.896;25.004;2024-03-02T14:20:18;29.37;;;18.23;;
15153;SDS011;7677;41.896;25.004;2024-03-02T14:22:47;29.67;;;18.63;;
15153;SDS011;7677;41.896;25.004;2024-03-02T14:25:15;27.70;;;17.10;;
15153;SDS011;7677;41.896;25.004;2024-03-02T14:27:44;26.60;;;16.27;;
15153;SDS011;7677;41.896;25.004;2024-03-02T14:30:12;29.07;;;16.70;;